Time;durP1;ratioP1;P1;durP2;ratioP2;P2;SDS_P1;SDS_P2;PMS_P1;PMS_P2;Temp;Humidity;BMP_temperature;BMP_pressure;BME280_temperature;BME280_humidity;BME280_pressure;Samples;Min_cycle;Max_cycle;Signal;HPM_P1;HPM_P2
2023/05/27 00:01:18;;;;;;;23.25;8.73;;;;;;;7.29;100.00;102767.69;5094526;28;20438;-48
2023/05/27 00:03:44;;;;;;;23.98;8.00;;;;;;;7.19;100.00;102768.69;5095186;28;20013;-48
2023/05/27 00:06:10;;;;;;;23.83;8.48;;;;;;;7.17;100.00;102770.25;5095536;28;20032;-49
2023/05/27 00:08:35;;;;;;;25.38;8.30;;;;;;;7.11;100.00;102769.78;5094462;28;20042;-47
2023/05/27 00:11:01;;;;;;;26.48;8.25;;;;;;;7.05;100.00;102771.88;5095417;28;20035;-48
2023/05/27 00:13:26;;;;;;;24.52;8.38;;;;;;;6.99;100.00;102771.44;5094963;28;20031;-47
2023/05/27 00:15:51;;;;;;;23.00;7.82;;;;;;;6.89;100.00;102764.72;5094789;28;20173;-49
2023/05/27 00:18:16;;;;;;;27.33;8.07;;;;;;;6.85;100.00;102763.59;5094231;28;20052;-47
2023/05/27 00:20:43;;;;;;;28.35;8.65;;;;;;;6.74;100.00;102769.59;5095247;28;20131;-48
2023/05/27 00:23:08;;;;;;;18.98;7.55;;;;;;;6.82;100.00;102768.50;5094601;28;20052;-51
2023/05/27 00:25:33;;;;;;;29.15;8.20;;;;;;;6.73;100.00;102757.53;5094603;28;20438;-50
2023/05/27 00:27:59;;;;;;;24.73;7.95;;;;;;;6.72;100.00;102755.75;5094305;28;20024;-47
2023/05/27 00:30:24;;;;;;;26.90;8.30;;;;;;;6.73;100.00;102763.56;5094617;28;20028;-52
2023/05/27 00:32:49;;;;;;;20.42;7.78;;;;;;;6.68;100.00;102751.19;5094530;28;20056;-50
2023/05/27 00:35:15;;;;;;;21.75;8.00;;;;;;;6.65;100.00;102758.59;5094106;28;20059;-47
2023/05/27 00:37:41;;;;;;;25.80;9.05;;;;;;;6.64;100.00;102756.84;5094567;28;20035;-47
2023/05/27 00:40:10;;;;;;;25.92;8.23;;;;;;;6.67;100.00;102755.38;5094700;28;20081;-51
2023/05/27 00:42:36;;;;;;;25.10;8.10;;;;;;;6.68;100.00;102758.88;5093795;28;20028;-50
2023/05/27 00:45:03;;;;;;;24.63;7.68;;;;;;;6.62;100.00;102751.59;5094193;28;20521;-50
2023/05/27 00:47:31;;;;;;;23.13;8.03;;;;;;;6.63;100.00;102749.94;5094283;28;20024;-52
2023/05/27 00:49:56;;;;;;;21.58;6.80;;;;;;;6.67;100.00;102746.81;5094072;28;20034;-49
2023/05/27 00:52:22;;;;;;;25.55;8.02;;;;;;;6.67;100.00;102745.13;5093855;28;20020;-48
2023/05/27 00:54:47;;;;;;;22.75;7.43;;;;;;;6.66;100.00;102745.94;5094530;28;20028;-50
2023/05/27 00:57:13;;;;;;;18.35;6.88;;;;;;;6.73;100.00;102743.06;5093868;28;20027;-50
2023/05/27 00:59:38;;;;;;;24.88;7.95;;;;;;;6.74;100.00;102743.97;5093706;28;20070;-49
2023/05/27 01:02:03;;;;;;;20.92;6.97;;;;;;;6.71;100.00;102742.06;5094021;28;20031;-51
2023/05/27 01:04:29;;;;;;;18.27;6.97;;;;;;;6.77;100.00;102740.75;5093499;28;20080;-51
2023/05/27 01:07:14;;;;;;;22.50;6.68;;;;;;;6.79;100.00;102737.50;5094019;28;20384;-48
2023/05/27 01:09:58;;;;;;;19.75;7.15;;;;;;;6.80;100.00;102744.41;5093639;28;20425;-46
2023/05/27 01:12:35;;;;;;;23.17;7.22;;;;;;;6.80;100.00;102741.84;5093285;28;20020;-51
2023/05/27 01:15:04;;;;;;;22.27;7.47;;;;;;;6.71;100.00;102736.03;5093967;28;20460;-49
2023/05/27 01:17:31;;;;;;;26.08;7.13;;;;;;;6.65;100.00;102738.13;5092824;28;20020;-47
2023/05/27 01:19:59;;;;;;;17.67;6.40;;;;;;;6.68;100.00;102733.25;5093653;28;20496;-52
2023/05/27 01:22:31;;;;;;;23.83;6.80;;;;;;;6.61;100.00;102739.56;5093690;28;20035;-51
2023/05/27 01:24:57;;;;;;;20.98;6.72;;;;;;;6.59;100.00;102729.19;5093334;28;20036;-49
2023/05/27 01:27:24;;;;;;;20.13;6.78;;;;;;;6.52;100.00;102734.63;5093227;28;20039;-50
2023/05/27 01:29:51;;;;;;;19.30;6.18;;;;;;;6.51;100.00;102731.97;5093824;28;20024;-51
2023/05/27 01:32:24;;;;;;;17.42;6.80;;;;;;;6.58;100.00;102732.53;5092801;28;20028;-50
2023/05/27 01:35:07;;;;;;;16.70;6.07;;;;;;;6.49;100.00;102731.81;5093517;28;20081;-52
2023/05/27 01:37:38;;;;;;;18.48;6.80;;;;;;;6.53;100.00;102736.44;5093478;28;20118;-49
2023/05/27 01:40:05;;;;;;;19.38;6.65;;;;;;;6.50;100.00;102735.28;5093243;28;20058;-46
2023/05/27 01:42:35;;;;;;;21.77;6.57;;;;;;;6.44;100.00;102728.00;5092960;28;20522;-51
2023/05/27 01:45:03;;;;;;;22.40;7.75;;;;;;;6.47;100.00;102723.16;5093568;28;20027;-48
2023/05/27 01:47:28;;;;;;;22.05;7.43;;;;;;;6.46;100.00;102711.09;5092690;28;20028;-49
2023/05/27 01:49:53;;;;;;;23.63;7.20;;;;;;;6.42;100.00;102714.22;5092912;28;20096;-52
2023/05/27 01:52:18;;;;;;;21.98;7.45;;;;;;;6.45;100.00;102727.25;5092802;28;20021;-51
2023/05/27 01:54:44;;;;;;;22.00;7.32;;;;;;;6.43;100.00;102721.13;5092960;28;20020;-51
2023/05/27 01:57:09;;;;;;;18.80;6.90;;;;;;;6.56;100.00;102716.16;5093272;28;20079;-47
2023/05/27 01:59:35;;;;;;;22.67;7.63;;;;;;;6.42;100.00;102724.47;5092573;28;20024;-48
2023/05/27 02:02:00;;;;;;;25.60;8.05;;;;;;;6.41;100.00;102722.66;5093075;28;20031;-51
2023/05/27 02:04:25;;;;;;;24.40;7.43;;;;;;;6.47;100.00;102709.44;5092747;28;20027;-51
2023/05/27 02:06:51;;;;;;;19.40;7.32;;;;;;;6.41;100.00;102705.63;5092575;28;20027;-50
2023/05/27 02:09:16;;;;;;;30.77;8.60;;;;;;;6.43;100.00;102710.88;5092554;28;20040;-49
2023/05/27 02:11:42;;;;;;;22.75;7.70;;;;;;;6.40;100.00;102715.75;5093211;28;20110;-52
2023/05/27 02:14:07;;;;;;;22.70;7.53;;;;;;;6.42;100.00;102717.66;5092436;28;20099;-49
2023/05/27 02:16:33;;;;;;;22.45;7.60;;;;;;;6.39;100.00;102725.13;5092536;28;20039;-48
2023/05/27 02:19:00;;;;;;;27.00;8.50;;;;;;;6.36;100.00;102721.41;5092960;28;20044;-48
2023/05/27 02:21:26;;;;;;;24.35;7.72;;;;;;;6.44;100.00;102725.44;5092005;28;20020;-50
2023/05/27 02:23:51;;;;;;;22.40;7.53;;;;;;;6.36;100.00;102712.06;5092894;28;20074;-46
2023/05/27 02:26:17;;;;;;;20.50;7.80;;;;;;;6.36;100.00;102718.84;5092903;28;20387;-51
2023/05/27 02:28:42;;;;;;;22.65;8.27;;;;;;;6.34;100.00;102716.19;5092356;28;20023;-51
2023/05/27 02:31:08;;;;;;;19.27;8.00;;;;;;;6.36;100.00;102713.75;5092739;28;20460;-51
2023/05/27 02:33:33;;;;;;;25.58;8.45;;;;;;;6.33;100.00;102723.75;5092560;28;20149;-48
2023/05/27 02:35:59;;;;;;;21.92;7.95;;;;;;;6.34;100.00;102712.72;5092236;28;20463;-48
2023/05/27 02:38:25;;;;;;;22.33;8.27;;;;;;;6.34;100.00;102718.75;5092524;28;20122;-50
2023/05/27 02:40:50;;;;;;;25.13;7.93;;;;;;;6.31;100.00;102718.50;5092898;28;20071;-47
2023/05/27 02:43:16;;;;;;;24.65;8.25;;;;;;;6.27;100.00;102721.59;5092045;28;20164;-47
2023/05/27 02:45:41;;;;;;;23.60;7.60;;;;;;;6.25;100.00;102731.72;5092574;28;20020;-51
2023/05/27 02:48:07;;;;;;;22.08;8.32;;;;;;;6.28;100.00;102720.81;5092634;28;20036;-46
2023/05/27 02:50:32;;;;;;;20.38;7.57;;;;;;;6.31;100.00;102727.84;5091808;28;20348;-47
2023/05/27 02:52:58;;;;;;;23.48;8.05;;;;;;;6.15;100.00;102724.09;5092652;28;20079;-50
2023/05/27 02:55:23;;;;;;;22.73;8.15;;;;;;;6.19;100.00;102731.25;5092539;28;20107;-50
2023/05/27 02:57:48;;;;;;;23.90;8.38;;;;;;;6.19;100.00;102731.25;5092363;28;20028;-48
2023/05/27 03:00:14;;;;;;;23.83;8.07;;;;;;;6.19;100.00;102735.47;5092514;28;20052;-46
2023/05/27 03:02:39;;;;;;;24.70;8.82;;;;;;;6.15;100.00;102736.03;5092386;28;20464;-51
2023/05/27 03:05:05;;;;;;;23.45;8.85;;;;;;;6.16;100.00;102733.56;5096136;28;20027;-48
2023/05/27 03:07:31;;;;;;;20.20;7.70;;;;;;;6.16;100.00;102736.13;5096306;28;20035;-48
2023/05/27 03:09:56;;;;;;;25.73;8.50;;;;;;;6.13;100.00;102729.88;5095926;28;20028;-47
2023/05/27 03:12:22;;;;;;;19.42;8.35;;;;;;;6.08;100.00;102732.06;5095761;28;20147;-50
2023/05/27 03:14:48;;;;;;;31.08;8.82;;;;;;;6.14;100.00;102742.78;5096315;28;20486;-50
2023/05/27 03:17:14;;;;;;;24.33;8.10;;;;;;;6.05;100.00;102737.84;5095801;28;20106;-50
2023/05/27 03:19:39;;;;;;;21.70;8.25;;;;;;;6.04;100.00;102745.41;5095333;28;20040;-50
2023/05/27 03:22:06;;;;;;;19.92;8.65;;;;;;;5.99;100.00;102732.25;5096294;28;20422;-51
2023/05/27 03:24:31;;;;;;;23.38;8.65;;;;;;;5.91;100.00;102733.28;5095142;28;20460;-51
2023/05/27 03:26:57;;;;;;;20.05;8.57;;;;;;;5.80;100.00;102735.00;5095753;28;20035;-47
2023/05/27 03:29:22;;;;;;;22.83;8.70;;;;;;;5.77;100.00;102729.63;5095660;28;20027;-50
2023/05/27 03:31:48;;;;;;;17.00;8.18;;;;;;;5.73;100.00;102727.59;5095407;28;20078;-50
2023/05/27 03:34:13;;;;;;;27.38;9.38;;;;;;;5.69;100.00;102725.56;5095647;28;20074;-51
2023/05/27 03:36:38;;;;;;;26.90;8.27;;;;;;;5.65;100.00;102723.53;5095746;28;20020;-51
2023/05/27 03:39:04;;;;;;;27.02;9.23;;;;;;;5.65;100.00;102718.41;5095427;28;20023;-51
2023/05/27 03:41:30;;;;;;;23.50;8.82;;;;;;;5.68;100.00;102718.66;5095465;28;20069;-52
2023/05/27 03:43:56;;;;;;;26.67;9.05;;;;;;;5.58;100.00;102717.94;5095394;28;20031;-46
2023/05/27 03:46:21;;;;;;;24.08;9.00;;;;;;;5.57;100.00;102716.13;5094907;28;20020;-51
2023/05/27 03:48:47;;;;;;;28.35;9.50;;;;;;;5.48;100.00;102720.50;5095273;28;20031;-50
2023/05/27 03:51:12;;;;;;;34.13;10.10;;;;;;;5.45;100.00;102710.06;5095497;28;20028;-52
2023/05/27 03:53:37;;;;;;;25.63;9.98;;;;;;;5.46;100.00;102705.81;5094668;28;20031;-51
2023/05/27 03:56:03;;;;;;;26.38;9.65;;;;;;;5.43;100.00;102709.91;5095449;28;20020;-50
2023/05/27 03:58:28;;;;;;;23.98;9.02;;;;;;;5.50;100.00;102710.41;5095429;28;20059;-51
2023/05/27 04:00:54;;;;;;;23.05;9.32;;;;;;;5.38;100.00;102702.66;5095037;28;20048;-51
2023/05/27 04:03:20;;;;;;;30.23;9.50;;;;;;;5.43;100.00;102706.47;5094693;28;20025;-52
2023/05/27 04:05:45;;;;;;;26.50;10.07;;;;;;;5.41;100.00;102708.00;5095531;28;20070;-51
2023/05/27 04:08:13;;;;;;;25.20;9.82;;;;;;;5.37;100.00;102705.97;5094610;28;20531;-50
2023/05/27 04:10:38;;;;;;;21.58;9.02;;;;;;;5.41;100.00;102708.00;5095133;28;20080;-50
2023/05/27 04:13:04;;;;;;;27.20;10.65;;;;;;;5.41;100.00;102703.78;5094757;28;20028;-49
2023/05/27 04:15:29;;;;;;;26.83;10.20;;;;;;;5.53;100.00;102709.00;5094366;28;20123;-51
2023/05/27 04:17:54;;;;;;;24.83;9.77;;;;;;;5.61;100.00;102702.81;5095031;28;20396;-51
2023/05/27 04:20:20;;;;;;;24.60;10.07;;;;;;;5.50;100.00;102705.28;5094451;28;20379;-52
2023/05/27 04:22:45;;;;;;;23.88;10.23;;;;;;;5.52;100.00;102707.19;5094836;28;20028;-52
2023/05/27 04:25:10;;;;;;;24.30;9.63;;;;;;;5.53;100.00;102703.88;5095145;28;20043;-50
2023/05/27 04:27:39;;;;;;;26.65;11.00;;;;;;;5.59;100.00;102704.38;5094453;28;20027;-50
2023/05/27 04:30:05;;;;;;;24.77;10.70;;;;;;;5.64;100.00;102699.59;5094649;28;20073;-50
2023/05/27 04:32:32;;;;;;;29.63;10.23;;;;;;;5.63;100.00;102695.28;5093643;28;20040;-52
2023/05/27 04:34:59;;;;;;;31.25;11.43;;;;;;;5.67;100.00;102691.28;5094450;28;20024;-48
2023/05/27 04:37:27;;;;;;;25.30;10.68;;;;;;;5.69;100.00;102694.88;5094452;28;20024;-52
2023/05/27 04:39:56;;;;;;;31.30;12.05;;;;;;;5.77;100.00;102693.78;5094843;28;20085;-52
2023/05/27 04:42:22;;;;;;;29.23;10.80;;;;;;;5.81;100.00;102685.63;5093806;28;20020;-51
2023/05/27 04:44:48;;;;;;;29.67;11.25;;;;;;;5.82;100.00;102683.94;5094342;28;20020;-51
2023/05/27 04:47:14;;;;;;;28.05;10.60;;;;;;;5.88;100.00;102677.63;5094422;28;20028;-51
2023/05/27 04:49:39;;;;;;;30.08;11.32;;;;;;;5.96;100.00;102685.91;5093576;28;20024;-51
2023/05/27 04:52:06;;;;;;;31.15;11.15;;;;;;;5.99;100.00;102681.06;5094145;28;20022;-51
2023/05/27 04:54:32;;;;;;;29.73;11.55;;;;;;;6.07;100.00;102674.00;5094169;28;20091;-52
2023/05/27 04:56:57;;;;;;;25.08;10.43;;;;;;;6.14;100.00;102675.34;5093978;28;20107;-51
2023/05/27 04:59:29;;;;;;;31.00;11.70;;;;;;;6.23;100.00;102681.16;5093710;28;20024;-50
2023/05/27 05:02:09;;;;;;;25.92;10.25;;;;;;;6.31;100.00;102679.19;5094323;28;20043;-52
2023/05/27 05:04:38;;;;;;;26.48;10.43;;;;;;;6.39;100.00;102670.41;5093302;28;20520;-50
2023/05/27 05:07:03;;;;;;;27.45;11.00;;;;;;;6.49;100.00;102667.78;5094137;28;20439;-50
2023/05/27 05:09:29;;;;;;;25.10;10.85;;;;;;;6.58;100.00;102678.75;5093179;28;20055;-51
2023/05/27 05:11:54;;;;;;;26.25;10.63;;;;;;;6.66;100.00;102678.41;5093789;28;20027;-52
2023/05/27 05:14:20;;;;;;;26.65;10.73;;;;;;;6.75;100.00;102668.84;5093555;28;20028;-49
2023/05/27 05:16:46;;;;;;;24.00;10.57;;;;;;;6.87;100.00;102674.00;5093609;28;20056;-50
2023/05/27 05:19:11;;;;;;;20.98;9.98;;;;;;;6.94;100.00;102671.09;5093474;28;20050;-51
2023/05/27 05:21:36;;;;;;;25.48;9.98;;;;;;;7.06;100.00;102665.97;5093660;28;20410;-50
2023/05/27 05:24:03;;;;;;;27.48;10.75;;;;;;;7.16;100.00;102668.44;5093208;28;20028;-52
2023/05/27 05:26:29;;;;;;;23.20;9.30;;;;;;;7.23;100.00;102665.56;5092663;28;20028;-51
2023/05/27 05:28:55;;;;;;;28.52;9.35;;;;;;;7.36;100.00;102666.41;5093603;28;20032;-51
2023/05/27 05:31:20;;;;;;;24.15;9.57;;;;;;;7.46;100.00;102674.00;5092844;28;20040;-51
2023/05/27 05:33:45;;;;;;;27.67;9.63;;;;;;;7.54;100.00;102671.97;5093408;28;20492;-51
2023/05/27 05:36:11;;;;;;;27.13;9.63;;;;;;;7.63;100.00;102674.31;5093806;28;20095;-50
2023/05/27 05:38:36;;;;;;;26.15;9.45;;;;;;;7.69;100.00;102662.81;5092828;28;20089;-51
2023/05/27 05:41:01;;;;;;;22.33;9.25;;;;;;;7.85;100.00;102659.66;5093335;28;20392;-52
2023/05/27 05:43:27;;;;;;;26.10;9.57;;;;;;;7.93;100.00;102664.41;5093275;28;20069;-52
2023/05/27 05:45:52;;;;;;;21.40;9.18;;;;;;;8.01;100.00;102658.16;5093132;28;20020;-51
2023/05/27 05:48:17;;;;;;;30.35;9.38;;;;;;;8.09;100.00;102659.56;5092935;28;20093;-48
2023/05/27 05:50:43;;;;;;;23.50;9.40;;;;;;;8.16;100.00;102656.66;5093475;28;20055;-50
2023/05/27 05:53:09;;;;;;;23.02;8.80;;;;;;;8.23;100.00;102656.25;5092632;28;20024;-51
2023/05/27 05:55:35;;;;;;;24.75;9.48;;;;;;;8.37;100.00;102648.63;5092869;28;20375;-50
2023/05/27 05:58:00;;;;;;;21.58;8.88;;;;;;;8.45;100.00;102650.00;5093207;28;20035;-47
2023/05/27 06:00:27;;;;;;;23.15;9.02;;;;;;;8.57;100.00;102649.97;5092329;28;20031;-50
2023/05/27 06:02:52;;;;;;;28.23;9.75;;;;;;;8.65;100.00;102653.97;5093035;28;20384;-50
2023/05/27 06:05:18;;;;;;;22.80;8.15;;;;;;;8.67;100.00;102646.34;5092824;28;20020;-49
2023/05/27 06:07:43;;;;;;;22.50;8.55;;;;;;;8.73;100.00;102647.63;5092451;28;20048;-47
2023/05/27 06:10:09;;;;;;;22.85;8.75;;;;;;;8.84;100.00;102642.31;5092936;28;20380;-50
2023/05/27 06:12:34;;;;;;;26.00;9.55;;;;;;;8.93;100.00;102642.91;5092300;28;20035;-51
2023/05/27 06:14:59;;;;;;;25.75;9.27;;;;;;;9.04;100.00;102641.06;5092743;28;20016;-51
2023/05/27 06:17:24;;;;;;;27.08;9.20;;;;;;;9.07;100.00;102643.81;5092863;28;20375;-51
2023/05/27 06:19:50;;;;;;;23.83;9.93;;;;;;;9.17;100.00;102646.19;5092164;28;20463;-51
2023/05/27 06:22:15;;;;;;;25.52;8.98;;;;;;;9.32;100.00;102646.28;5092597;28;20027;-49
2023/05/27 06:24:41;;;;;;;23.40;8.77;;;;;;;9.43;100.00;102643.50;5093051;28;20416;-49
2023/05/27 06:27:07;;;;;;;21.02;8.30;;;;;;;9.47;100.00;102650.63;5092300;28;20518;-51
2023/05/27 06:29:32;;;;;;;23.85;9.02;;;;;;;9.54;100.00;102638.22;5092158;28;20063;-50
2023/05/27 06:31:58;;;;;;;20.50;8.77;;;;;;;9.65;100.00;102632.88;5092869;28;20048;-50
2023/05/27 06:34:23;;;;;;;24.30;8.68;;;;;;;9.68;100.00;102635.63;5092128;28;20106;-52
2023/05/27 06:36:48;;;;;;;22.92;8.55;;;;;;;9.78;100.00;102635.38;5093149;28;20028;-52
2023/05/27 06:39:15;;;;;;;26.35;9.60;;;;;;;9.91;100.00;102631.00;5096968;28;20020;-51
2023/05/27 06:41:41;;;;;;;25.77;9.93;;;;;;;9.94;99.61;102621.78;5096267;28;20028;-50
2023/05/27 06:44:06;;;;;;;26.75;9.43;;;;;;;10.08;100.00;102634.59;5096811;28;20422;-52
2023/05/27 06:46:31;;;;;;;23.88;8.48;;;;;;;10.18;100.00;102630.06;5096840;28;20016;-51
2023/05/27 06:48:57;;;;;;;21.13;8.10;;;;;;;10.27;99.55;102628.88;5096353;28;20040;-51
2023/05/27 06:51:23;;;;;;;21.45;8.80;;;;;;;10.36;99.32;102619.13;5096212;28;20032;-51
2023/05/27 06:53:48;;;;;;;24.75;8.60;;;;;;;10.37;97.29;102620.91;5096721;28;20063;-51
2023/05/27 06:56:13;;;;;;;23.63;8.48;;;;;;;10.54;98.07;102620.19;5096127;28;20145;-51
2023/05/27 06:58:39;;;;;;;22.75;8.55;;;;;;;10.59;96.36;102617.00;5096073;28;20072;-50
2023/05/27 07:01:04;;;;;;;23.13;9.30;;;;;;;10.62;94.80;102622.34;5096615;28;20023;-50
2023/05/27 07:03:29;;;;;;;20.35;8.45;;;;;;;10.70;95.73;102626.25;5095571;28;20375;-51
2023/05/27 07:05:55;;;;;;;25.67;9.80;;;;;;;10.81;95.18;102613.97;5096282;28;20032;-51
2023/05/27 07:08:20;;;;;;;27.60;8.80;;;;;;;10.88;94.64;102613.50;5096241;28;20077;-51
2023/05/27 07:10:46;;;;;;;24.00;8.18;;;;;;;10.95;93.99;102613.06;5095591;28;20024;-51
2023/05/27 07:13:13;;;;;;;25.98;8.48;;;;;;;11.00;92.69;102610.72;5096604;28;20077;-49
2023/05/27 07:15:39;;;;;;;23.70;9.20;;;;;;;11.06;92.72;102611.06;5096215;28;20115;-51
2023/05/27 07:18:04;;;;;;;18.88;7.90;;;;;;;11.24;93.75;102610.34;5095439;28;20114;-52
2023/05/27 07:20:30;;;;;;;20.67;8.43;;;;;;;11.29;92.12;102616.63;5096100;28;20067;-47
2023/05/27 07:22:55;;;;;;;24.30;8.93;;;;;;;11.42;92.75;102616.50;5095680;28;20027;-49
2023/05/27 07:25:20;;;;;;;23.95;8.88;;;;;;;11.50;91.83;102611.75;5095581;28;20043;-52
2023/05/27 07:27:46;;;;;;;29.63;8.85;;;;;;;11.55;91.23;102612.88;5095993;28;20120;-51
2023/05/27 07:30:11;;;;;;;20.45;8.68;;;;;;;11.56;89.42;102606.03;5095344;28;20032;-51
2023/05/27 07:32:37;;;;;;;22.52;8.77;;;;;;;11.57;89.27;102605.22;5095508;28;20035;-50
2023/05/27 07:35:03;;;;;;;26.70;9.70;;;;;;;11.72;90.11;102600.00;5096107;28;20024;-49
2023/05/27 07:37:30;;;;;;;22.23;8.70;;;;;;;11.82;89.14;102605.72;5094979;28;20384;-51
2023/05/27 07:39:55;;;;;;;21.98;9.05;;;;;;;12.00;89.19;102607.53;5095688;28;20388;-50
2023/05/27 07:42:20;;;;;;;31.60;9.38;;;;;;;12.18;88.58;102603.31;5095407;28;20486;-52
2023/05/27 07:44:45;;;;;;;21.88;8.35;;;;;;;12.28;88.42;102599.50;5095353;28;20468;-48
2023/05/27 07:47:11;;;;;;;22.65;8.90;;;;;;;12.30;86.54;102591.81;5095521;28;20048;-51
2023/05/27 07:49:36;;;;;;;21.67;8.30;;;;;;;12.46;87.10;102588.28;5094539;28;20032;-51
2023/05/27 07:52:01;;;;;;;25.00;9.43;;;;;;;12.61;87.21;102580.41;5095119;28;20460;-51
2023/05/27 07:54:27;;;;;;;24.00;8.73;;;;;;;12.49;84.26;102585.88;5094969;28;20047;-49
2023/05/27 07:56:52;;;;;;;27.30;9.82;;;;;;;12.59;84.95;102582.94;5095413;28;20536;-51
2023/05/27 07:59:18;;;;;;;23.92;8.85;;;;;;;12.82;85.64;102576.28;5094517;28;20511;-47
2023/05/27 08:01:43;;;;;;;20.80;8.88;;;;;;;12.83;83.26;102570.31;5095394;28;20020;-51
2023/05/27 08:04:08;;;;;;;20.75;9.15;;;;;;;12.99;84.84;102561.56;5095603;28;20422;-51
2023/05/27 08:06:34;;;;;;;22.23;8.75;;;;;;;13.16;83.19;102575.28;5094401;28;20036;-52
2023/05/27 08:08:59;;;;;;;24.83;9.20;;;;;;;13.32;84.87;102569.13;5094976;28;20483;-51
2023/05/27 08:11:25;;;;;;;26.70;9.73;;;;;;;13.38;81.72;102572.84;5094806;28;20459;-51
2023/05/27 08:13:50;;;;;;;22.50;8.77;;;;;;;13.37;79.81;102574.53;5094306;28;20020;-51
2023/05/27 08:16:16;;;;;;;23.90;8.18;;;;;;;13.46;79.44;102567.19;5094919;28;20077;-50
2023/05/27 08:18:41;;;;;;;20.58;8.32;;;;;;;13.57;79.07;102559.00;5094814;28;20050;-47
2023/05/27 08:21:06;;;;;;;25.17;8.50;;;;;;;13.66;78.90;102562.03;5094426;28;20039;-52
2023/05/27 08:23:32;;;;;;;31.13;9.25;;;;;;;13.82;79.67;102554.09;5094782;28;20028;-52
2023/05/27 08:25:57;;;;;;;23.20;9.07;;;;;;;13.92;77.85;102545.03;5095030;28;20193;-49
2023/05/27 08:28:22;;;;;;;25.33;8.48;;;;;;;14.11;78.21;102541.50;5093980;28;20024;-51
2023/05/27 08:30:47;;;;;;;24.90;8.95;;;;;;;14.26;77.94;102545.56;5095006;28;20044;-49
2023/05/27 08:33:13;;;;;;;25.15;9.75;;;;;;;14.28;75.18;102538.72;5094876;28;20415;-49
2023/05/27 08:35:38;;;;;;;24.77;8.80;;;;;;;14.51;75.81;102536.19;5093916;28;20107;-51
2023/05/27 08:38:03;;;;;;;20.02;8.88;;;;;;;14.48;74.49;102527.44;5094581;28;20031;-51
2023/05/27 08:40:29;;;;;;;25.10;8.88;;;;;;;14.55;75.36;102512.13;5093779;28;20039;-51
2023/05/27 08:42:55;;;;;;;23.77;8.45;;;;;;;14.78;74.47;102519.16;5094625;28;20016;-46
2023/05/27 08:45:22;;;;;;;22.65;10.02;;;;;;;14.77;72.95;102520.00;5094248;28;20494;-48
2023/05/27 08:47:48;;;;;;;24.42;8.70;;;;;;;15.01;72.39;102511.38;5094132;28;20380;-51
2023/05/27 08:50:14;;;;;;;23.40;8.87;;;;;;;15.13;71.22;102519.63;5094270;28;20024;-52
2023/05/27 08:52:47;;;;;;;20.23;8.80;;;;;;;15.25;71.02;102514.00;5094199;28;20041;-50
2023/05/27 08:55:17;;;;;;;25.45;8.70;;;;;;;15.30;66.92;102514.19;5094137;28;20039;-51
2023/05/27 08:57:46;;;;;;;18.90;7.85;;;;;;;15.60;68.78;102506.59;5094324;28;20062;-51
2023/05/27 09:00:13;;;;;;;19.08;7.90;;;;;;;15.59;67.89;102503.94;5093593;28;20024;-51
2023/05/27 09:02:39;;;;;;;19.52;8.38;;;;;;;15.72;67.84;102500.94;5093067;28;20031;-51
2023/05/27 09:05:05;;;;;;;21.15;8.43;;;;;;;15.86;66.87;102504.06;5094058;28;20406;-51
2023/05/27 09:07:31;;;;;;;19.70;8.35;;;;;;;16.09;66.62;102504.84;5093747;28;20464;-50
2023/05/27 09:09:57;;;;;;;21.20;8.27;;;;;;;16.20;65.01;102505.16;5093391;28;20020;-51
2023/05/27 09:12:24;;;;;;;18.60;8.45;;;;;;;16.50;65.29;102501.81;5093969;28;20025;-51
2023/05/27 09:14:50;;;;;;;23.08;8.73;;;;;;;16.49;63.12;102491.34;5094090;28;20137;-51
2023/05/27 09:17:15;;;;;;;22.73;8.50;;;;;;;16.63;62.58;102492.69;5092880;28;20474;-50
2023/05/27 09:19:41;;;;;;;21.13;9.50;;;;;;;16.82;62.28;102482.81;5093779;28;20044;-51
2023/05/27 09:22:06;;;;;;;21.80;8.52;;;;;;;16.83;60.99;102487.19;5093731;28;20022;-51
2023/05/27 09:24:32;;;;;;;24.13;7.82;;;;;;;16.95;59.93;102483.25;5093091;28;20036;-52
2023/05/27 09:26:57;;;;;;;21.25;7.35;;;;;;;17.00;59.36;102480.75;5094032;28;20356;-48
2023/05/27 09:29:26;;;;;;;19.00;7.60;;;;;;;17.25;59.59;102473.69;5093583;28;20103;-51
2023/05/27 09:31:55;;;;;;;19.10;7.82;;;;;;;17.82;58.68;102474.28;5093188;28;20055;-50
2023/05/27 09:34:20;;;;;;;19.15;7.15;;;;;;;18.18;57.05;102473.47;5093358;28;20039;-51
2023/05/27 09:36:48;;;;;;;21.95;7.68;;;;;;;18.30;56.17;102473.78;5093061;28;20019;-51
2023/05/27 09:39:15;;;;;;;22.63;8.07;;;;;;;18.39;55.09;102471.38;5093202;28;20547;-52
2023/05/27 09:41:41;;;;;;;20.50;7.68;;;;;;;19.10;52.97;102468.59;5093754;28;20027;-51
2023/05/27 09:44:08;;;;;;;20.50;7.80;;;;;;;19.11;53.44;102462.47;5093006;28;20097;-52
2023/05/27 09:46:34;;;;;;;17.50;7.07;;;;;;;19.26;51.25;102468.00;5092940;28;20020;-47
2023/05/27 09:49:00;;;;;;;29.10;8.45;;;;;;;18.90;51.81;102466.41;5093541;28;20032;-49
2023/05/27 09:51:26;;;;;;;27.25;8.30;;;;;;;19.84;48.37;102459.50;5092446;28;20486;-48
2023/05/27 09:53:56;;;;;;;21.88;7.57;;;;;;;19.79;49.14;102462.00;5093279;28;20095;-49
2023/05/27 09:56:23;;;;;;;19.02;7.22;;;;;;;20.32;46.21;102462.88;5093195;28;20058;-48
2023/05/27 09:58:49;;;;;;;19.27;7.22;;;;;;;20.56;44.98;102459.72;5092735;28;20103;-49
2023/05/27 10:01:17;;;;;;;17.13;7.28;;;;;;;20.86;45.58;102455.78;5092949;28;20124;-48
2023/05/27 10:03:44;;;;;;;19.38;7.53;;;;;;;20.91;45.21;102448.84;5093108;28;20024;-48
2023/05/27 10:06:14;;;;;;;17.58;7.22;;;;;;;20.61;45.82;102451.94;5092312;28;20024;-49
2023/05/27 10:08:42;;;;;;;17.15;6.68;;;;;;;20.30;46.64;102452.38;5092992;28;20105;-49
2023/05/27 10:11:10;;;;;;;18.35;7.20;;;;;;;19.92;45.98;102451.78;5093201;28;20023;-49
2023/05/27 10:13:35;;;;;;;;;;;;;;;20.19;49.53;102452.22;5092186;28;20028;-49
2023/05/27 10:16:02;;;;;;;21.92;7.68;;;;;;;19.97;47.46;102444.88;5092986;28;19923;-49
2023/05/27 10:18:29;;;;;;;20.85;7.70;;;;;;;20.09;45.79;102439.84;5092413;28;20047;-49
2023/05/27 10:20:56;;;;;;;22.15;7.88;;;;;;;20.59;46.72;102436.19;5092492;28;20024;-49
2023/05/27 10:23:25;;;;;;;25.27;8.07;;;;;;;20.58;44.64;102434.44;5092761;28;20334;-49
2023/05/27 10:26:06;;;;;;;18.65;7.45;;;;;;;20.52;46.41;102435.22;5092183;28;20107;-50
2023/05/27 10:28:41;;;;;;;17.65;7.95;;;;;;;20.21;48.07;102442.63;5092335;28;20024;-49
2023/05/27 10:31:07;;;;;;;18.80;7.47;;;;;;;19.87;45.93;102430.75;5093175;28;20099;-49
2023/05/27 10:33:42;;;;;;;19.67;7.10;;;;;;;20.05;46.30;102435.41;5091892;28;20522;-50
2023/05/27 10:36:09;;;;;;;21.05;7.20;;;;;;;20.50;45.30;102420.34;5092784;28;20028;-51
2023/05/27 10:38:36;;;;;;;20.60;6.90;;;;;;;22.38;41.01;102423.09;5092546;28;20028;-50
2023/05/27 10:41:03;;;;;;;17.53;6.27;;;;;;;23.27;37.74;102420.81;5092253;28;20028;-51
2023/05/27 10:43:33;;;;;;;15.55;6.40;;;;;;;23.44;38.84;102417.31;5092259;28;20107;-49
2023/05/27 10:46:06;;;;;;;17.13;6.43;;;;;;;24.81;35.78;102418.84;5092974;28;20032;-51
2023/05/27 10:48:33;;;;;;;17.67;6.50;;;;;;;25.13;33.75;102410.75;5091611;28;20392;-52
2023/05/27 10:50:59;;;;;;;14.02;5.95;;;;;;;25.66;33.75;102409.53;5092630;28;20028;-51
2023/05/27 10:53:28;;;;;;;20.33;6.55;;;;;;;25.71;33.05;102410.38;5092643;28;20020;-51
2023/05/27 10:55:54;;;;;;;17.20;5.97;;;;;;;27.30;30.52;102407.59;5091884;28;20085;-51
2023/05/27 10:58:20;;;;;;;18.17;6.05;;;;;;;26.95;29.97;102408.06;5092455;28;20107;-50
2023/05/27 11:00:50;;;;;;;16.83;6.38;;;;;;;26.85;30.02;102401.16;5092883;28;20030;-52
2023/05/27 11:03:26;;;;;;;16.92;5.65;;;;;;;26.89;31.26;102396.72;5091611;28;20024;-51
2023/05/27 11:06:01;;;;;;;19.88;5.68;;;;;;;27.85;30.93;102385.47;5092798;28;20044;-48
2023/05/27 11:08:27;;;;;;;18.55;6.30;;;;;;;28.46;27.84;102381.63;5091504;28;20020;-51
2023/05/27 11:11:05;;;;;;;17.08;5.93;;;;;;;27.88;29.69;102384.53;5092564;28;20032;-48
2023/05/27 11:13:34;;;;;;;11.32;4.43;;;;;;;27.52;26.40;102384.31;5092067;28;20024;-52